Time;durP1;ratioP1;P1;durP2;ratioP2;P2;SDS_P1;SDS_P2;PMS_P1;PMS_P2;Temp;Humidity;BMP_temperature;BMP_pressure;BME280_temperature;BME280_humidity;BME280_pressure;Samples;Min_cycle;Max_cycle;Signal;HPM_P1;HPM_P2
2023/06/12 00:00:47;;;;;;;14.98;9.35;;;17.20;99.90;;;;;;5085615;28;20031;-87
2023/06/12 00:03:14;;;;;;;12.98;8.23;;;17.10;99.90;;;;;;5079069;28;20024;-88
2023/06/12 00:05:43;;;;;;;12.75;9.27;;;17.10;99.90;;;;;;5084427;28;20385;-87
2023/06/12 00:08:11;;;;;;;16.17;8.63;;;17.00;99.90;;;;;;5075759;28;20465;-88
2023/06/12 00:10:39;;;;;;;16.80;9.85;;;17.10;99.90;;;;;;5078365;28;20493;-88
2023/06/12 00:13:05;;;;;;;12.75;8.77;;;17.10;99.90;;;;;;5085421;28;20386;-87
2023/06/12 00:15:31;;;;;;;13.27;9.10;;;17.20;99.90;;;;;;5084363;28;20416;-88
2023/06/12 00:17:57;;;;;;;16.33;9.73;;;17.20;99.90;;;;;;5087961;28;20032;-89
2023/06/12 00:20:22;;;;;;;17.50;10.07;;;17.30;99.90;;;;;;5079343;28;20028;-88
2023/06/12 00:22:48;;;;;;;18.20;8.73;;;17.40;99.90;;;;;;5082838;28;20035;-88
2023/06/12 00:25:13;;;;;;;16.30;8.90;;;17.50;99.90;;;;;;5087829;28;20077;-88
2023/06/12 00:27:39;;;;;;;17.17;8.85;;;17.60;99.90;;;;;;5086369;28;20069;-88
2023/06/12 00:30:05;;;;;;;12.90;8.50;;;17.70;99.90;;;;;;5084536;28;20083;-88
2023/06/12 00:32:31;;;;;;;12.13;7.75;;;17.80;99.90;;;;;;5084406;28;20063;-88
2023/06/12 00:34:56;;;;;;;14.20;8.25;;;17.80;99.90;;;;;;5083429;28;20056;-88
2023/06/12 00:37:24;;;;;;;14.15;8.35;;;17.80;99.90;;;;;;5082253;28;20016;-87
2023/06/12 00:39:51;;;;;;;12.23;8.40;;;17.80;99.90;;;;;;5085497;28;20032;-88
2023/06/12 00:42:16;;;;;;;13.13;7.50;;;17.80;99.90;;;;;;5089611;28;20028;-88
2023/06/12 00:44:42;;;;;;;11.00;8.55;;;17.80;99.90;;;;;;5084933;28;20081;-88
2023/06/12 00:47:10;;;;;;;13.50;8.50;;;17.80;99.90;;;;;;5084152;28;20020;-88
2023/06/12 00:49:36;;;;;;;14.20;7.70;;;17.90;99.90;;;;;;5075315;28;20056;-88
2023/06/12 00:52:03;;;;;;;11.23;7.38;;;17.90;99.90;;;;;;5081283;28;20504;-87
2023/06/12 00:54:29;;;;;;;10.10;7.57;;;17.90;99.90;;;;;;5086619;28;20040;-88
2023/06/12 00:56:58;;;;;;;16.38;8.35;;;17.90;99.90;;;;;;5087944;28;20044;-88
2023/06/12 00:59:24;;;;;;;14.13;9.10;;;17.90;99.90;;;;;;5083933;28;20090;-87
2023/06/12 01:01:50;;;;;;;16.27;7.72;;;17.90;99.90;;;;;;5085884;28;20028;-88
2023/06/12 01:04:16;;;;;;;14.88;8.02;;;18.00;99.90;;;;;;5082826;28;20393;-88
2023/06/12 01:06:55;;;;;;;11.40;7.32;;;18.00;99.90;;;;;;5085239;28;20551;-88
2023/06/12 01:09:38;;;;;;;13.82;7.55;;;18.00;99.90;;;;;;5077402;28;20525;-89
2023/06/12 01:12:06;;;;;;;15.82;7.85;;;18.00;99.90;;;;;;5083736;28;20044;-88
2023/06/12 01:14:31;;;;;;;11.52;7.45;;;18.00;99.90;;;;;;5074615;28;20481;-89
2023/06/12 01:17:01;;;;;;;14.60;7.63;;;18.00;99.90;;;;;;5088271;28;20474;-88
2023/06/12 01:19:27;;;;;;;11.70;6.88;;;18.10;99.90;;;;;;5080743;28;20032;-89
2023/06/12 01:21:58;;;;;;;9.68;6.95;;;18.10;99.90;;;;;;5081288;28;20493;-88
2023/06/12 01:24:40;;;;;;;10.35;7.28;;;18.10;99.90;;;;;;5082398;28;20028;-89
2023/06/12 01:27:17;;;;;;;13.75;6.97;;;18.10;99.90;;;;;;5077022;28;20724;-88
2023/06/12 01:30:06;;;;;;;13.38;7.60;;;18.10;99.90;;;;;;5087240;28;20059;-88
2023/06/12 01:33:07;;;;;;;;;;;18.10;99.90;;;;;;5093126;27;20412;-90
2023/06/12 01:35:36;;;;;;;17.08;7.15;;;18.10;99.90;;;;;;5093096;28;19908;-89
2023/06/12 01:38:14;;;;;;;11.60;7.28;;;18.10;99.90;;;;;;5089461;28;20093;-90
2023/06/12 01:40:41;;;;;;;11.23;6.75;;;18.10;99.90;;;;;;5100362;28;20031;-89
2023/06/12 01:43:07;;;;;;;13.65;7.00;;;18.10;99.90;;;;;;5098662;28;20036;-90
2023/06/12 01:45:33;;;;;;;9.65;6.70;;;18.10;99.90;;;;;;5092112;28;20384;-89
2023/06/12 01:47:58;;;;;;;8.95;6.82;;;18.10;99.90;;;;;;5091947;28;20043;-89
2023/06/12 01:50:24;;;;;;;11.05;6.63;;;18.10;99.90;;;;;;5092350;28;20393;-88
2023/06/12 01:52:52;;;;;;;8.88;6.57;;;18.10;99.90;;;;;;5098302;28;20399;-90
2023/06/12 01:55:19;;;;;;;9.30;6.75;;;18.10;99.90;;;;;;5087664;28;20063;-89
2023/06/12 01:57:45;;;;;;;10.50;6.35;;;18.00;99.90;;;;;;5097856;28;20390;-88
2023/06/12 02:00:11;;;;;;;8.30;6.35;;;18.00;99.90;;;;;;5089315;28;20055;-89
2023/06/12 02:02:39;;;;;;;10.95;6.82;;;18.10;99.90;;;;;;5098867;28;20354;-89
2023/06/12 02:05:06;;;;;;;10.18;7.57;;;18.10;99.90;;;;;;5085662;28;20075;-89
2023/06/12 02:07:32;;;;;;;9.80;6.88;;;18.10;99.90;;;;;;5088995;28;20120;-89
2023/06/12 02:09:58;;;;;;;10.30;7.22;;;18.00;99.90;;;;;;5094983;28;20123;-89
2023/06/12 02:12:23;;;;;;;16.30;8.50;;;18.00;99.90;;;;;;5088324;28;20089;-90
2023/06/12 02:14:50;;;;;;;11.20;7.50;;;17.90;99.90;;;;;;5094075;28;20127;-89
2023/06/12 02:17:18;;;;;;;14.85;8.40;;;17.80;99.90;;;;;;5087146;28;20393;-89
2023/06/12 02:19:46;;;;;;;14.43;8.75;;;17.70;99.90;;;;;;5088677;28;20036;-89
2023/06/12 02:22:11;;;;;;;15.15;8.93;;;17.70;99.90;;;;;;5091316;28;20059;-88
2023/06/12 02:24:37;;;;;;;16.42;9.10;;;17.60;99.90;;;;;;5093384;28;20056;-89
2023/06/12 02:27:03;;;;;;;15.30;9.00;;;17.50;99.90;;;;;;5099638;28;20028;-89
2023/06/12 02:29:29;;;;;;;13.80;8.13;;;17.40;99.90;;;;;;5091825;28;20595;-89
2023/06/12 02:31:54;;;;;;;12.02;8.43;;;17.30;99.90;;;;;;5084824;28;20055;-89
2023/06/12 02:34:20;;;;;;;14.65;7.55;;;17.20;99.90;;;;;;5092693;28;20020;-89
2023/06/12 02:36:46;;;;;;;15.02;8.82;;;17.20;99.90;;;;;;5090442;28;20023;-89
2023/06/12 02:39:13;;;;;;;11.50;8.10;;;17.10;99.90;;;;;;5093687;28;20016;-89
2023/06/12 02:41:41;;;;;;;13.27;9.90;;;17.00;99.90;;;;;;5093865;28;20032;-89
2023/06/12 02:44:07;;;;;;;16.10;9.15;;;16.90;99.90;;;;;;5073486;28;20035;-89
2023/06/12 02:46:33;;;;;;;13.90;9.45;;;16.70;99.90;;;;;;5074077;28;20029;-89
2023/06/12 02:48:59;;;;;;;16.50;10.02;;;16.60;99.90;;;;;;5072042;28;20111;-89
2023/06/12 02:51:25;;;;;;;19.48;10.32;;;16.40;99.90;;;;;;5081005;28;20123;-88
2023/06/12 02:53:51;;;;;;;12.10;9.65;;;16.30;99.90;;;;;;5079274;28;20028;-88
2023/06/12 02:56:16;;;;;;;18.63;9.32;;;16.10;99.90;;;;;;5078702;28;20482;-88
2023/06/12 02:58:44;;;;;;;19.55;10.85;;;16.00;99.90;;;;;;5079481;28;20031;-89
2023/06/12 03:01:10;;;;;;;17.02;9.45;;;15.90;99.90;;;;;;5078008;28;20016;-89
2023/06/12 03:03:36;;;;;;;16.63;9.85;;;15.80;99.90;;;;;;5075036;28;20027;-89
2023/06/12 03:06:01;;;;;;;21.52;11.05;;;15.70;99.90;;;;;;5078845;28;20421;-88
2023/06/12 03:08:27;;;;;;;21.58;10.63;;;15.60;99.90;;;;;;5074555;28;20103;-89
2023/06/12 03:10:53;;;;;;;16.33;10.13;;;15.50;99.90;;;;;;5076763;28;20474;-88
2023/06/12 03:13:19;;;;;;;14.88;9.60;;;15.40;99.90;;;;;;5078145;28;20541;-88
2023/06/12 03:15:45;;;;;;;15.48;9.45;;;15.30;99.90;;;;;;5075685;28;20672;-88
2023/06/12 03:18:10;;;;;;;17.88;9.65;;;15.30;99.90;;;;;;5077350;28;20029;-89
2023/06/12 03:20:36;;;;;;;15.68;10.27;;;15.30;99.90;;;;;;5068637;28;20033;-88
2023/06/12 03:23:02;;;;;;;17.02;10.43;;;15.10;99.90;;;;;;5079317;28;20303;-89
2023/06/12 03:25:27;;;;;;;19.77;11.18;;;15.00;99.90;;;;;;5076861;28;20024;-89
2023/06/12 03:27:53;;;;;;;16.98;10.45;;;15.00;99.90;;;;;;5082422;28;20123;-88
2023/06/12 03:30:19;;;;;;;18.20;10.02;;;14.90;99.90;;;;;;5073337;28;20020;-88
2023/06/12 03:32:46;;;;;;;14.82;8.70;;;14.90;99.90;;;;;;5071708;28;20082;-88
2023/06/12 03:35:12;;;;;;;16.27;10.25;;;14.80;99.90;;;;;;5074806;28;20028;-89
2023/06/12 03:37:38;;;;;;;25.55;11.40;;;14.80;99.90;;;;;;5072406;28;20020;-89
2023/06/12 03:40:04;;;;;;;15.70;9.75;;;14.80;99.90;;;;;;5074585;28;20039;-88
2023/06/12 03:42:30;;;;;;;18.55;10.45;;;14.70;99.90;;;;;;5077749;28;20024;-89
2023/06/12 03:44:56;;;;;;;15.32;10.15;;;14.80;99.90;;;;;;5074746;28;20452;-89
2023/06/12 03:47:21;;;;;;;17.98;10.70;;;14.70;99.90;;;;;;5072703;28;20028;-90
2023/06/12 03:49:47;;;;;;;19.00;10.32;;;14.70;99.90;;;;;;5072761;28;20036;-89
2023/06/12 03:52:12;;;;;;;16.00;9.55;;;14.80;99.90;;;;;;5075230;28;20131;-89
2023/06/12 03:54:38;;;;;;;15.15;9.80;;;14.80;99.90;;;;;;5073125;28;20462;-89
2023/06/12 03:57:05;;;;;;;19.25;10.10;;;14.70;99.90;;;;;;5075836;28;20058;-90
2023/06/12 03:59:30;;;;;;;15.07;9.73;;;14.70;99.90;;;;;;5076681;28;20446;-88
2023/06/12 04:01:57;;;;;;;17.25;8.75;;;14.70;99.90;;;;;;5077060;28;20067;-87
2023/06/12 04:04:23;;;;;;;12.95;8.82;;;14.70;99.90;;;;;;5073850;28;20041;-88
2023/06/12 04:06:48;;;;;;;18.42;9.20;;;14.80;99.90;;;;;;5072358;28;20027;-90
2023/06/12 04:09:14;;;;;;;12.13;8.73;;;14.90;99.90;;;;;;5074721;28;20039;-90
2023/06/12 04:11:40;;;;;;;23.83;9.32;;;14.90;99.90;;;;;;5082008;28;20063;-89
2023/06/12 04:14:07;;;;;;;15.05;9.57;;;15.00;99.90;;;;;;5072033;28;20074;-86
2023/06/12 04:16:33;;;;;;;13.30;9.75;;;15.10;99.90;;;;;;5070173;28;20039;-90
2023/06/12 04:19:03;;;;;;;13.07;8.40;;;15.10;99.90;;;;;;5068829;28;20487;-88
2023/06/12 04:21:29;;;;;;;14.00;9.35;;;15.10;99.90;;;;;;5081245;28;20038;-89
2023/06/12 04:23:55;;;;;;;22.60;10.07;;;15.20;99.90;;;;;;5081786;28;20111;-87
2023/06/12 04:26:21;;;;;;;14.27;9.77;;;15.30;99.90;;;;;;5073834;28;20111;-86
2023/06/12 04:28:46;;;;;;;13.02;9.30;;;15.40;99.90;;;;;;5062997;28;20032;-88
2023/06/12 04:31:15;;;;;;;13.52;9.15;;;15.50;99.90;;;;;;5065526;28;20048;-89
2023/06/12 04:33:41;;;;;;;15.95;9.20;;;15.50;99.90;;;;;;5072849;28;20048;-89
2023/06/12 04:36:07;;;;;;;12.65;8.38;;;15.60;99.90;;;;;;5074004;28;20052;-90
2023/06/12 04:38:36;;;;;;;14.35;8.90;;;15.60;99.90;;;;;;5071307;28;20032;-90
2023/06/12 04:41:02;;;;;;;18.58;9.88;;;15.70;99.90;;;;;;5064160;28;20482;-89
2023/06/12 04:43:29;;;;;;;16.65;10.95;;;15.70;99.90;;;;;;5065063;28;20035;-87
2023/06/12 04:45:55;;;;;;;18.42;9.85;;;15.70;99.90;;;;;;5069430;28;20055;-88
2023/06/12 04:48:20;;;;;;;19.02;9.88;;;15.80;99.90;;;;;;5070693;28;20059;-89
2023/06/12 04:50:54;;;;;;;20.92;9.60;;;15.80;99.90;;;;;;5065825;28;20032;-87
2023/06/12 04:53:27;;;;;;;12.38;9.27;;;15.90;99.90;;;;;;5070109;28;20040;-88
2023/06/12 04:55:54;;;;;;;12.85;8.18;;;15.90;99.90;;;;;;5075016;28;20063;-89
2023/06/12 04:58:20;;;;;;;12.70;9.18;;;15.90;99.90;;;;;;5068838;28;20111;-88
2023/06/12 05:00:47;;;;;;;15.85;7.63;;;16.00;99.90;;;;;;5066476;28;20028;-89
2023/06/12 05:03:16;;;;;;;11.45;8.75;;;16.10;99.90;;;;;;5080340;28;20028;-89
2023/06/12 05:05:45;;;;;;;15.02;9.07;;;16.10;99.90;;;;;;5062563;28;20033;-90
2023/06/12 05:08:11;;;;;;;12.88;8.77;;;16.20;99.90;;;;;;5072812;28;20040;-88
2023/06/12 05:10:37;;;;;;;12.05;8.02;;;16.20;99.90;;;;;;5072034;28;20035;-89
2023/06/12 05:13:03;;;;;;;12.75;8.20;;;16.30;99.90;;;;;;5072051;28;20040;-89
2023/06/12 05:15:30;;;;;;;13.40;9.60;;;16.30;99.90;;;;;;5076736;28;20588;-89
2023/06/12 05:17:56;;;;;;;11.18;9.20;;;16.30;99.90;;;;;;5081289;28;20110;-89
2023/06/12 05:20:21;;;;;;;21.08;9.98;;;16.40;99.90;;;;;;5082112;28;20104;-89
2023/06/12 05:22:47;;;;;;;14.50;9.27;;;16.40;99.90;;;;;;5074430;28;20039;-87
2023/06/12 05:25:13;;;;;;;13.68;9.00;;;16.50;99.90;;;;;;5066785;28;20033;-89
2023/06/12 05:27:39;;;;;;;18.27;10.70;;;16.60;99.90;;;;;;5080373;28;20023;-88
2023/06/12 05:30:06;;;;;;;26.05;11.85;;;16.60;99.90;;;;;;5077074;28;20278;-89
2023/06/12 05:32:32;;;;;;;20.15;11.88;;;16.70;99.90;;;;;;5068231;28;20112;-89
2023/06/12 05:34:57;;;;;;;23.85;12.55;;;16.80;99.90;;;;;;5069578;28;20050;-88
2023/06/12 05:37:23;;;;;;;15.35;11.45;;;16.90;99.90;;;;;;5068521;28;20081;-88
2023/06/12 05:39:49;;;;;;;13.80;9.65;;;16.90;99.90;;;;;;5074483;28;20028;-89
2023/06/12 05:42:15;;;;;;;19.98;9.73;;;17.00;99.90;;;;;;5071676;28;20041;-90
2023/06/12 05:44:41;;;;;;;17.58;9.25;;;17.10;99.90;;;;;;5077460;28;20050;-89
2023/06/12 05:47:08;;;;;;;10.52;8.10;;;17.10;99.90;;;;;;5068292;28;20032;-87
2023/06/12 05:49:34;;;;;;;15.93;8.88;;;17.20;99.90;;;;;;5074561;28;20032;-89
2023/06/12 05:52:02;;;;;;;12.05;8.80;;;17.30;99.90;;;;;;5072742;28;20063;-88
2023/06/12 05:54:28;;;;;;;16.80;9.07;;;17.30;99.90;;;;;;5063907;28;20131;-89
2023/06/12 05:56:53;;;;;;;14.75;9.32;;;17.40;99.90;;;;;;5074359;28;20112;-89
2023/06/12 05:59:20;;;;;;;13.02;9.60;;;17.50;99.90;;;;;;5072617;28;20024;-87
2023/06/12 06:01:46;;;;;;;13.35;9.07;;;17.50;99.90;;;;;;5076249;28;20036;-90
2023/06/12 06:04:11;;;;;;;19.00;9.82;;;17.60;99.90;;;;;;5082769;28;20032;-90
2023/06/12 06:06:38;;;;;;;42.97;13.48;;;17.50;99.90;;;;;;5076665;28;20107;-88
2023/06/12 06:09:06;;;;;;;18.08;10.25;;;17.60;99.90;;;;;;5077508;28;20031;-89
2023/06/12 06:11:32;;;;;;;20.10;10.35;;;17.60;99.90;;;;;;5083132;28;20405;-89
2023/06/12 06:13:58;;;;;;;16.00;8.57;;;17.60;99.90;;;;;;5078004;28;20103;-89
2023/06/12 06:16:24;;;;;;;16.58;8.63;;;17.70;99.90;;;;;;5073793;28;20028;-88
2023/06/12 06:18:51;;;;;;;13.77;9.02;;;17.70;99.90;;;;;;5080893;28;20359;-90
2023/06/12 06:21:16;;;;;;;13.93;9.15;;;17.80;99.90;;;;;;5083115;28;20029;-89
2023/06/12 06:23:42;;;;;;;17.58;8.80;;;17.90;99.90;;;;;;5086089;28;20032;-90
2023/06/12 06:26:09;;;;;;;15.50;9.55;;;17.90;99.90;;;;;;5076726;28;20056;-89
2023/06/12 06:28:35;;;;;;;20.10;8.05;;;18.00;99.90;;;;;;5081247;28;20024;-90
2023/06/12 06:31:00;;;;;;;13.88;9.10;;;18.00;99.90;;;;;;5084668;28;20048;-88
2023/06/12 06:33:26;;;;;;;14.20;9.55;;;18.10;99.90;;;;;;5082555;28;20048;-89
2023/06/12 06:35:52;;;;;;;11.98;8.65;;;18.20;99.90;;;;;;5071296;28;20074;-89
2023/06/12 06:38:21;;;;;;;19.00;8.57;;;18.30;99.90;;;;;;5075103;28;20044;-89
2023/06/12 06:40:47;;;;;;;21.10;8.60;;;18.40;99.90;;;;;;5084177;28;20088;-90
2023/06/12 06:43:13;;;;;;;11.60;7.43;;;18.40;99.90;;;;;;5082516;28;20059;-89
2023/06/12 06:45:38;;;;;;;12.98;6.40;;;18.40;99.90;;;;;;5079070;28;20056;-91
2023/06/12 06:48:05;;;;;;;16.58;5.95;;;18.50;99.90;;;;;;5089092;28;20028;-89
2023/06/12 06:50:30;;;;;;;14.25;5.65;;;18.70;99.90;;;;;;5083584;28;20476;-91
2023/06/12 06:52:56;;;;;;;8.60;5.57;;;18.80;99.90;;;;;;5080249;28;20115;-90
2023/06/12 06:55:22;;;;;;;11.18;6.50;;;19.00;99.90;;;;;;5079463;28;20028;-90
2023/06/12 06:57:50;;;;;;;9.00;7.32;;;19.10;99.90;;;;;;5084050;28;20039;-89
2023/06/12 07:00:16;;;;;;;13.65;7.28;;;19.10;99.90;;;;;;5080574;28;20489;-89
2023/06/12 07:02:45;;;;;;;10.07;6.45;;;19.20;99.90;;;;;;5082686;28;20074;-88
2023/06/12 07:05:11;;;;;;;11.88;6.45;;;19.20;99.90;;;;;;5089844;28;20031;-87
2023/06/12 07:07:38;;;;;;;13.18;6.05;;;19.30;99.90;;;;;;5087767;28;20103;-89
2023/06/12 07:10:04;;;;;;;12.40;6.32;;;19.30;99.90;;;;;;5088316;28;20024;-88
2023/06/12 07:12:30;;;;;;;36.70;8.45;;;19.30;99.90;;;;;;5089382;28;20036;-89
2023/06/12 07:14:55;;;;;;;11.38;5.85;;;19.30;99.90;;;;;;5086991;28;20035;-87
2023/06/12 07:17:21;;;;;;;9.10;4.43;;;19.40;99.90;;;;;;5086490;28;20089;-88
2023/06/12 07:19:47;;;;;;;19.98;5.03;;;19.50;99.90;;;;;;5089877;28;20031;-90
2023/06/12 07:22:12;;;;;;;60.92;5.15;;;19.60;99.90;;;;;;5087988;28;20123;-91
2023/06/12 07:24:38;;;;;;;27.17;4.05;;;19.80;99.90;;;;;;5074963;28;20120;-89
2023/06/12 07:27:03;;;;;;;51.30;4.63;;;19.90;99.50;;;;;;5084037;28;20327;-89
2023/06/12 07:29:29;;;;;;;32.67;4.15;;;20.10;99.90;;;;;;5088154;28;20138;-90
2023/06/12 07:31:55;;;;;;;62.13;4.82;;;20.20;97.90;;;;;;5089481;28;20513;-90
2023/06/12 07:34:20;;;;;;;47.72;5.45;;;20.40;94.90;;;;;;5089509;28;20024;-89
2023/06/12 07:36:46;;;;;;;25.45;4.25;;;20.50;90.90;;;;;;5086659;28;20040;-86
2023/06/12 07:39:12;;;;;;;27.23;5.03;;;20.50;85.90;;;;;;5079843;28;20028;-87
2023/06/12 07:41:39;;;;;;;27.05;4.28;;;20.60;86.90;;;;;;5087955;28;20457;-89
2023/06/12 07:44:06;;;;;;;11.23;4.15;;;20.60;88.10;;;;;;5088355;28;20496;-92
2023/06/12 07:46:32;;;;;;;28.25;4.10;;;20.70;87.20;;;;;;5086914;28;20435;-88
2023/06/12 07:48:57;;;;;;;10.85;3.67;;;20.80;84.70;;;;;;5086740;28;20024;-89
2023/06/12 07:51:23;;;;;;;70.88;6.57;;;20.90;77.70;;;;;;5085216;28;20105;-87
2023/06/12 07:53:49;;;;;;;65.43;4.97;;;20.90;78.10;;;;;;5085497;28;20020;-89
2023/06/12 07:56:16;;;;;;;27.38;4.53;;;20.90;77.90;;;;;;5082246;28;20047;-89
2023/06/12 07:58:42;;;;;;;35.60;4.35;;;21.00;79.70;;;;;;5086821;28;20035;-89
2023/06/12 08:01:07;;;;;;;20.65;4.32;;;21.00;68.30;;;;;;5082545;28;20020;-89
2023/06/12 08:03:38;;;;;;;34.58;4.47;;;21.00;68.70;;;;;;5084068;28;20169;-88
2023/06/12 08:06:13;;;;;;;35.75;4.10;;;21.10;66.90;;;;;;5085744;28;20031;-89
2023/06/12 08:08:48;;;;;;;34.53;5.10;;;21.10;71.60;;;;;;5087930;28;20020;-89
2023/06/12 08:11:14;;;;;;;170.02;8.73;;;21.20;61.70;;;;;;5087168;28;20040;-89
2023/06/12 08:13:40;;;;;;;124.20;7.00;;;21.20;62.20;;;;;;5079530;28;20035;-87
2023/06/12 08:16:07;;;;;;;219.30;11.52;;;21.30;67.10;;;;;;5088635;28;20036;-89
2023/06/12 08:18:33;;;;;;;25.48;4.18;;;21.30;71.30;;;;;;5087184;28;20047;-93
2023/06/12 08:20:58;;;;;;;17.75;4.00;;;21.30;62.10;;;;;;5083441;28;20125;-89
2023/06/12 08:23:24;;;;;;;17.35;3.80;;;21.30;62.60;;;;;;5088690;28;20097;-86
2023/06/12 08:25:50;;;;;;;9.43;4.30;;;21.30;63.00;;;;;;5068230;28;20056;-87
2023/06/12 08:28:15;;;;;;;6.30;3.42;;;21.40;64.70;;;;;;5087199;28;20031;-87
2023/06/12 08:30:41;;;;;;;8.43;4.07;;;21.40;62.80;;;;;;5084525;28;20059;-86
2023/06/12 08:33:07;;;;;;;12.18;3.72;;;21.40;63.10;;;;;;5088456;28;20043;-86
2023/06/12 08:35:34;;;;;;;10.60;3.95;;;21.40;61.60;;;;;;5085077;28;20036;-88
2023/06/12 08:38:03;;;;;;;4.38;3.28;;;21.30;62.00;;;;;;5088286;28;20036;-89
2023/06/12 08:40:29;;;;;;;9.98;3.80;;;21.40;61.00;;;;;;5083873;28;20248;-87
2023/06/12 08:42:55;;;;;;;5.30;3.72;;;21.50;57.80;;;;;;5088106;28;20097;-87
2023/06/12 08:45:25;;;;;;;8.43;4.18;;;21.50;57.00;;;;;;5088259;28;20012;-87
2023/06/12 08:47:52;;;;;;;8.00;4.15;;;21.40;56.70;;;;;;5087172;28;20435;-88
2023/06/12 08:50:19;;;;;;;11.75;3.85;;;21.40;57.90;;;;;;5077290;28;20032;-87
2023/06/12 08:52:46;;;;;;;6.68;3.60;;;21.40;60.00;;;;;;5085861;28;20047;-87
2023/06/12 08:55:14;;;;;;;22.40;4.25;;;21.40;62.60;;;;;;5086560;28;20096;-87
2023/06/12 08:57:41;;;;;;;15.27;4.30;;;21.40;67.00;;;;;;5088183;28;20492;-86
2023/06/12 09:00:12;;;;;;;7.72;4.22;;;21.50;68.30;;;;;;5077486;28;20025;-86
2023/06/12 09:02:46;;;;;;;12.40;3.55;;;21.60;62.90;;;;;;5071524;28;20021;-86
2023/06/12 09:05:19;;;;;;;11.10;4.43;;;21.60;58.70;;;;;;5082234;28;20032;-87
2023/06/12 09:07:46;;;;;;;6.68;3.80;;;21.70;58.10;;;;;;5086806;28;20071;-87
2023/06/12 09:10:14;;;;;;;14.02;4.00;;;21.70;58.30;;;;;;5088040;28;20111;-86
2023/06/12 09:12:43;;;;;;;13.70;3.88;;;21.80;57.80;;;;;;5081418;28;20051;-85
2023/06/12 09:15:09;;;;;;;8.30;3.50;;;21.70;56.50;;;;;;5084009;28;20034;-86
2023/06/12 09:17:39;;;;;;;5.40;3.83;;;21.80;54.00;;;;;;5084250;28;20056;-85
2023/06/12 09:20:06;;;;;;;4.97;3.40;;;21.80;54.90;;;;;;5083291;28;20033;-87
2023/06/12 09:22:32;;;;;;;10.10;3.92;;;21.90;55.00;;;;;;5078796;28;20072;-87
2023/06/12 09:24:57;;;;;;;13.48;4.18;;;21.90;56.40;;;;;;5076951;28;20115;-89
2023/06/12 09:27:23;;;;;;;6.95;4.30;;;22.00;55.90;;;;;;5080419;28;20484;-86
2023/06/12 09:29:48;;;;;;;7.78;3.70;;;22.10;56.60;;;;;;5068293;28;20112;-89
2023/06/12 09:32:15;;;;;;;5.07;3.58;;;22.10;53.70;;;;;;5067453;28;20048;-88
2023/06/12 09:34:49;;;;;;;7.63;3.35;;;22.10;54.80;;;;;;5072145;28;20036;-88
2023/06/12 09:37:16;;;;;;;14.88;3.40;;;22.10;54.50;;;;;;5072302;28;20039;-89
2023/06/12 09:39:43;;;;;;;11.77;3.90;;;22.10;53.20;;;;;;5083924;28;20024;-89
2023/06/12 09:42:10;;;;;;;13.55;3.53;;;22.10;53.00;;;;;;5087611;28;20028;-87
2023/06/12 09:44:38;;;;;;;10.38;3.85;;;22.20;49.00;;;;;;5087502;28;20329;-87
2023/06/12 09:47:05;;;;;;;6.88;4.50;;;22.10;49.20;;;;;;5086261;28;20054;-88
2023/06/12 09:49:34;;;;;;;7.47;3.42;;;22.10;48.70;;;;;;5079068;28;20474;-87
2023/06/12 09:52:02;;;;;;;7.10;3.45;;;22.10;48.50;;;;;;5071382;28;20055;-89
2023/06/12 09:54:30;;;;;;;9.75;3.70;;;22.20;47.30;;;;;;5084371;28;20039;-88
2023/06/12 09:56:58;;;;;;;5.97;3.38;;;22.20;46.90;;;;;;5091165;28;20035;-87
2023/06/12 09:59:27;;;;;;;4.05;3.20;;;22.30;44.90;;;;;;5091197;28;20063;-89
2023/06/12 10:02:00;;;;;;;10.52;3.55;;;22.30;45.40;;;;;;5091235;28;20028;-86
2023/06/12 10:04:35;;;;;;;5.88;3.40;;;22.30;43.70;;;;;;5091162;28;20016;-86
2023/06/12 10:07:11;;;;;;;6.90;3.80;;;22.30;44.10;;;;;;5086973;28;20028;-87
2023/06/12 10:09:39;;;;;;;7.05;3.05;;;22.30;44.60;;;;;;5090203;28;20119;-89
2023/06/12 10:12:06;;;;;;;6.72;3.20;;;22.40;45.20;;;;;;5090866;28;20047;-87
2023/06/12 10:14:34;;;;;;;10.25;3.10;;;22.50;42.60;;;;;;5087990;28;20081;-88
2023/06/12 10:17:01;;;;;;;8.45;3.22;;;22.50;42.10;;;;;;5089729;28;20028;-87
2023/06/12 10:19:28;;;;;;;9.93;4.28;;;22.60;41.90;;;;;;5087525;28;20024;-85
2023/06/12 10:21:55;;;;;;;13.88;4.35;;;22.60;43.50;;;;;;5090903;28;20028;-87
2023/06/12 10:24:22;;;;;;;10.20;3.03;;;22.60;42.60;;;;;;5082186;28;20465;-86
2023/06/12 10:26:50;;;;;;;7.80;3.63;;;22.60;44.00;;;;;;5077873;28;20029;-86
2023/06/12 10:29:34;;;;;;;6.03;3.30;;;22.80;42.10;;;;;;5082188;28;20033;-85
2023/06/12 10:32:07;;;;;;;8.43;3.30;;;22.70;43.80;;;;;;5072073;28;20086;-85
2023/06/12 10:34:40;;;;;;;4.68;3.05;;;22.80;44.30;;;;;;5078559;28;20028;-85
2023/06/12 10:37:27;;;;;;;6.90;3.22;;;22.80;45.60;;;;;;5083211;28;20234;-87
2023/06/12 10:40:11;;;;;;;5.93;3.65;;;22.80;46.20;;;;;;5066073;28;20048;-86
2023/06/12 10:42:53;;;;;;;17.70;3.78;;;22.80;46.00;;;;;;5083552;28;20032;-87
2023/06/12 10:45:23;;;;;;;7.38;3.70;;;22.80;46.10;;;;;;5087504;28;20024;-87
2023/06/12 10:48:06;;;;;;;9.18;3.97;;;22.80;47.80;;;;;;5074783;28;20062;-86
2023/06/12 10:50:43;;;;;;;13.00;3.75;;;22.80;48.80;;;;;;5072271;28;20025;-85
2023/06/12 10:53:32;;;;;;;4.57;3.90;;;22.90;50.70;;;;;;5082328;28;20404;-85
2023/06/12 10:56:07;;;;;;;8.50;4.05;;;23.00;51.10;;;;;;5076354;28;20032;-85
2023/06/12 10:58:41;;;;;;;10.95;4.15;;;23.00;51.40;;;;;;5097732;28;20393;-86
2023/06/12 11:01:14;;;;;;;10.70;4.00;;;23.20;50.90;;;;;;5079446;28;20036;-86
2023/06/12 11:03:44;;;;;;;8.50;3.88;;;23.20;50.50;;;;;;5078076;28;20021;-88
2023/06/12 11:06:13;;;;;;;6.45;3.45;;;23.20;48.70;;;;;;5079601;28;20029;-86
2023/06/12 11:08:42;;;;;;;14.50;4.35;;;23.20;49.90;;;;;;5068023;28;20033;-84
2023/06/12 11:11:10;;;;;;;52.78;5.05;;;23.20;51.00;;;;;;5078315;28;20240;-87
2023/06/12 11:13:42;;;;;;;8.18;3.63;;;23.20;48.90;;;;;;5076481;28;20493;-85
2023/06/12 11:16:12;;;;;;;8.80;4.30;;;23.30;48.20;;;;;;5089879;28;20028;-83
2023/06/12 11:18:37;;;;;;;15.85;4.22;;;23.30;49.00;;;;;;5085107;28;20115;-87
2023/06/12 11:21:03;;;;;;;14.88;3.75;;;23.30;48.60;;;;;;5088845;28;20153;-89
2023/06/12 11:23:29;;;;;;;11.80;4.63;;;23.30;49.40;;;;;;5069972;28;20052;-89
2023/06/12 11:25:57;;;;;;;14.65;4.60;;;23.40;48.10;;;;;;5073116;28;20033;-86
2023/06/12 11:28:23;;;;;;;8.38;4.13;;;23.30;48.00;;;;;;5067392;28;20028;-85
2023/06/12 11:30:56;;;;;;;11.43;4.05;;;23.40;49.60;;;;;;5075082;28;20020;-84
2023/06/12 11:33:22;;;;;;;7.90;4.22;;;23.40;49.60;;;;;;5069218;28;20479;-85
2023/06/12 11:35:50;;;;;;;8.77;4.13;;;23.50;50.10;;;;;;5067746;28;20120;-87
2023/06/12 11:38:18;;;;;;;17.65;5.80;;;23.60;49.80;;;;;;5072483;28;20501;-86
2023/06/12 11:40:45;;;;;;;8.35;4.05;;;23.60;47.50;;;;;;5078317;28;20362;-86
2023/06/12 11:43:11;;;;;;;14.77;4.68;;;23.50;47.50;;;;;;5079941;28;20024;-85
2023/06/12 11:45:43;;;;;;;11.95;4.38;;;23.50;48.50;;;;;;5082493;28;20076;-86
2023/06/12 11:48:16;;;;;;;8.52;3.67;;;23.50;49.90;;;;;;5068458;28;20390;-86
2023/06/12 11:50:52;;;;;;;6.65;3.90;;;23.60;49.20;;;;;;5080380;28;20032;-86
2023/06/12 11:53:22;;;;;;;14.02;4.60;;;23.60;47.70;;;;;;5072546;28;20040;-86
2023/06/12 11:55:56;;;;;;;6.80;3.90;;;23.60;47.40;;;;;;5068092;28;20028;-85
2023/06/12 11:58:40;;;;;;;9.38;4.47;;;23.60;46.90;;;;;;5065689;28;20025;-88
2023/06/12 12:01:22;;;;;;;5.35;4.07;;;23.60;47.10;;;;;;5066806;28;20029;-88
2023/06/12 12:03:48;;;;;;;9.00;3.90;;;23.70;47.00;;;;;;5070038;28;20024;-87
2023/06/12 12:06:16;;;;;;;10.70;3.95;;;23.80;45.70;;;;;;5064255;28;20056;-86
2023/06/12 12:08:42;;;;;;;9.55;3.72;;;23.80;45.30;;;;;;5072791;28;20382;-87
2023/06/12 12:11:22;;;;;;;11.07;4.53;;;23.80;43.50;;;;;;5069493;28;20093;-87
2023/06/12 12:13:52;;;;;;;5.55;4.40;;;23.70;44.50;;;;;;5073126;28;20046;-86
2023/06/12 12:16:26;;;;;;;9.02;4.20;;;23.80;46.90;;;;;;5049413;28;20715;-85
2023/06/12 12:18:51;;;;;;;9.25;4.35;;;23.80;45.00;;;;;;5053913;28;20620;-89
2023/06/12 12:21:17;;;;;;;16.50;4.63;;;23.80;45.40;;;;;;5041221;28;20052;-87
2023/06/12 12:23:44;;;;;;;6.70;4.15;;;23.80;46.40;;;;;;5042273;28;20040;-87
2023/06/12 12:26:13;;;;;;;13.25;4.40;;;23.80;46.00;;;;;;5059719;28;20034;-87
2023/06/12 12:28:39;;;;;;;8.75;4.05;;;23.70;46.30;;;;;;5068763;28;20227;-85
2023/06/12 12:31:05;;;;;;;10.13;3.90;;;23.80;46.70;;;;;;5077622;28;20048;-86
2023/06/12 12:33:32;;;;;;;11.57;3.90;;;23.70;46.60;;;;;;5072772;28;20442;-86
2023/06/12 12:35:59;;;;;;;13.75;3.95;;;23.70;45.20;;;;;;5075697;28;20077;-85
2023/06/12 12:38:24;;;;;;;7.60;4.13;;;23.70;44.70;;;;;;5061060;28;20048;-86
2023/06/12 12:40:53;;;;;;;11.07;3.30;;;23.80;46.10;;;;;;5072815;28;20359;-86